createdAt,value
2022-11-16T00:02:11.127Z,99561.69
2022-11-16T00:04:37.964Z,99543.34
2022-11-16T00:07:05.127Z,99544.44
2022-11-16T00:09:32.677Z,99552.28
2022-11-16T00:12:01.757Z,99543.88
2022-11-16T00:14:30.658Z,99533.00
2022-11-16T00:16:57.418Z,99531.28
2022-11-16T00:19:25.419Z,99532.69
2022-11-16T00:21:52.754Z,99531.91
2022-11-16T00:24:21.166Z,99533.31
2022-11-16T00:26:48.690Z,99534.81
2022-11-16T00:29:16.517Z,99536.59
2022-11-16T00:31:43.816Z,99532.31
2022-11-16T00:34:10.267Z,99530.75
2022-11-16T00:36:36.860Z,99524.31
2022-11-16T00:39:03.726Z,99525.88
2022-11-16T00:41:30.185Z,99532.03
2022-11-16T00:43:56.640Z,99541.28
2022-11-16T00:46:23.155Z,99535.59
2022-11-16T00:48:49.618Z,99532.31
2022-11-16T00:51:16.022Z,99536.91
2022-11-16T00:53:42.437Z,99532.69
2022-11-16T00:56:08.865Z,99534.69
2022-11-16T00:58:35.514Z,99528.00
2022-11-16T01:01:07.077Z,99527.06
2022-11-16T01:03:35.156Z,99524.22
2022-11-16T01:06:07.995Z,99525.50
2022-11-16T01:08:37.024Z,99532.28
2022-11-16T01:11:22.840Z,99516.38
2022-11-16T01:13:49.654Z,99516.19
2022-11-16T01:16:17.655Z,99515.31
2022-11-16T01:18:47.545Z,99509.56
2022-11-16T01:21:14.111Z,99509.66
2022-11-16T01:23:40.589Z,99502.78
2022-11-16T01:26:07.069Z,99507.50
2022-11-16T01:28:34.169Z,99508.94
2022-11-16T01:31:01.138Z,99501.75
2022-11-16T01:33:28.707Z,99509.59
2022-11-16T01:35:55.172Z,99503.19
2022-11-16T01:38:25.929Z,99496.09
2022-11-16T01:40:54.990Z,99493.31
2022-11-16T01:43:25.626Z,99498.03
2022-11-16T01:45:52.514Z,99488.28
2022-11-16T01:48:28.628Z,99490.25
2022-11-16T01:50:56.361Z,99485.06
2022-11-16T01:53:24.466Z,99490.13
2022-11-16T01:55:52.506Z,99484.88
2022-11-16T01:58:23.005Z,99482.53
2022-11-16T02:00:49.553Z,99481.22
2022-11-16T02:03:19.905Z,99475.94
2022-11-16T02:05:55.332Z,99481.50
2022-11-16T02:08:59.333Z,99474.94
2022-11-16T02:11:25.693Z,99468.84
2022-11-16T02:13:57.806Z,99471.38
2022-11-16T02:16:24.196Z,99471.16
2022-11-16T02:18:50.564Z,99463.28
2022-11-16T02:21:27.821Z,99457.84
2022-11-16T02:24:15.976Z,99466.19
2022-11-16T02:26:54.570Z,99462.00
2022-11-16T02:29:28.338Z,99461.25
2022-11-16T02:32:04.939Z,99451.50
2022-11-16T02:34:36.557Z,99448.88
2022-11-16T02:37:06.723Z,99452.75
2022-11-16T02:39:35.038Z,99453.34
2022-11-16T02:42:02.634Z,99461.50
2022-11-16T02:44:33.645Z,99450.47
2022-11-16T02:47:05.132Z,99453.13
2022-11-16T02:49:35.771Z,99453.81
2022-11-16T02:52:04.777Z,99456.59
2022-11-16T02:54:31.376Z,99447.53
2022-11-16T02:57:32.699Z,99439.19
2022-11-16T03:00:00.942Z,99450.69
2022-11-16T03:02:37.825Z,99464.09
2022-11-16T03:05:17.508Z,99454.06
2022-11-16T03:08:01.804Z,99457.63
2022-11-16T03:10:47.120Z,99447.06
2022-11-16T03:13:15.677Z,99440.50
2022-11-16T03:15:42.739Z,99451.63
2022-11-16T03:18:10.687Z,99452.59
2022-11-16T03:20:38.909Z,99448.84
2022-11-16T03:23:10.083Z,99470.34
2022-11-16T03:25:42.180Z,99454.94
2022-11-16T03:28:15.070Z,99463.13
2022-11-16T03:30:51.036Z,99461.00
2022-11-16T03:33:27.557Z,99472.09
2022-11-16T03:35:56.983Z,99455.56
2022-11-16T03:38:26.062Z,99464.28
2022-11-16T03:40:57.454Z,99459.06
2022-11-16T03:43:26.494Z,99465.81
2022-11-16T03:45:53.971Z,99463.56
2022-11-16T03:48:20.378Z,99467.31
2022-11-16T03:50:46.941Z,99469.81
2022-11-16T03:53:13.372Z,99475.34
2022-11-16T03:55:39.830Z,99466.78
2022-11-16T03:58:06.276Z,99475.19
2022-11-16T04:00:32.877Z,99464.97
2022-11-16T04:02:59.455Z,99472.28
2022-11-16T04:05:44.255Z,99463.16
2022-11-16T04:08:34.396Z,99478.25
2022-11-16T04:11:19.591Z,99477.09
2022-11-16T04:14:09.096Z,99471.28
2022-11-16T04:16:54.706Z,99475.63
2022-11-16T04:19:57.964Z,99472.63
2022-11-16T04:22:49.675Z,99481.41
2022-11-16T04:25:21.217Z,99477.41
2022-11-16T04:28:06.792Z,99490.50
2022-11-16T04:30:52.751Z,99498.75
2022-11-16T04:33:37.860Z,99501.25
2022-11-16T04:36:23.073Z,99507.50
2022-11-16T04:38:49.523Z,99499.72
2022-11-16T04:41:34.491Z,99499.41
2022-11-16T04:44:00.923Z,99500.34
2022-11-16T04:46:45.639Z,99501.72
2022-11-16T04:49:12.101Z,99496.31
2022-11-16T04:51:38.562Z,99499.88
2022-11-16T04:54:05.049Z,99500.38
2022-11-16T04:56:31.481Z,99507.91
2022-11-16T04:58:57.924Z,99505.59
2022-11-16T05:01:44.439Z,99496.03
2022-11-16T05:04:11.414Z,99492.69
2022-11-16T05:06:37.857Z,99499.84
2022-11-16T05:09:04.336Z,99497.84
2022-11-16T05:11:30.814Z,99508.34
2022-11-16T05:13:57.266Z,99505.53
2022-11-16T05:16:23.697Z,99504.25
2022-11-16T05:19:10.100Z,99513.47
2022-11-16T05:21:36.574Z,99511.50
2022-11-16T05:24:22.097Z,99508.97
2022-11-16T05:26:48.568Z,99506.75
2022-11-16T05:29:15.010Z,99503.41
2022-11-16T05:31:41.447Z,99503.41
2022-11-16T05:34:09.558Z,99495.22
2022-11-16T05:36:36.018Z,99509.09
2022-11-16T05:39:02.746Z,99502.94
2022-11-16T05:41:29.212Z,99514.66
2022-11-16T05:43:56.058Z,99507.66
2022-11-16T05:46:23.658Z,99504.09
2022-11-16T05:48:50.463Z,99500.47
2022-11-16T05:51:17.238Z,99511.84
2022-11-16T05:53:44.410Z,99520.38
2022-11-16T05:56:12.024Z,99514.41
2022-11-16T05:58:38.495Z,99522.47
2022-11-16T06:01:05.172Z,99529.03
2022-11-16T06:03:31.958Z,99521.63
2022-11-16T06:05:58.888Z,99530.53
2022-11-16T06:08:25.341Z,99529.97
2022-11-16T06:10:51.773Z,99525.59
2022-11-16T06:13:18.248Z,99521.78
2022-11-16T06:15:51.343Z,99539.06
2022-11-16T06:18:17.838Z,99528.53
2022-11-16T06:20:44.246Z,99530.75
2022-11-16T06:23:10.650Z,99524.72
2022-11-16T06:25:38.927Z,99528.00
2022-11-16T06:28:08.122Z,99529.00
2022-11-16T06:30:35.042Z,99531.59
2022-11-16T06:33:01.526Z,99535.16
2022-11-16T06:35:27.990Z,99547.94
2022-11-16T06:37:55.365Z,99539.25
2022-11-16T06:40:21.830Z,99544.78
2022-11-16T06:42:48.235Z,99521.22
2022-11-16T06:45:14.659Z,99530.97
2022-11-16T06:47:41.110Z,99535.28
2022-11-16T06:50:08.067Z,99542.56
2022-11-16T06:52:34.739Z,99539.97
2022-11-16T06:55:01.149Z,99538.47
2022-11-16T06:57:27.602Z,99534.13
2022-11-16T06:59:54.129Z,99539.59
2022-11-16T07:02:22.753Z,99550.22
2022-11-16T07:04:49.211Z,99543.06
2022-11-16T07:07:16.382Z,99532.25
2022-11-16T07:09:44.513Z,99556.41
2022-11-16T07:12:10.968Z,99540.91
2022-11-16T07:14:37.517Z,99541.13
2022-11-16T07:17:09.075Z,99532.88
2022-11-16T07:19:36.685Z,99534.91
2022-11-16T07:22:04.232Z,99542.00
2022-11-16T07:24:30.695Z,99549.69
2022-11-16T07:26:57.294Z,99556.97
2022-11-16T07:29:24.500Z,99545.25
2022-11-16T07:31:51.160Z,99550.97
2022-11-16T07:34:17.673Z,99560.91
2022-11-16T07:36:44.399Z,99556.84
2022-11-16T07:39:28.901Z,99551.41
2022-11-16T07:42:20.311Z,99549.28
2022-11-16T07:50:02.470Z,99559.56
2022-11-16T07:52:28.926Z,99560.25
2022-11-16T07:54:55.367Z,99558.75
2022-11-16T07:57:21.772Z,99562.34
2022-11-16T07:59:48.210Z,99559.09
2022-11-16T08:02:14.693Z,99563.50
2022-11-16T08:04:41.247Z,99553.47
2022-11-16T08:07:08.491Z,99561.50
2022-11-16T08:09:35.029Z,99560.94
2022-11-16T08:12:01.462Z,99554.19
2022-11-16T08:14:27.856Z,99562.34
2022-11-16T08:16:54.273Z,99566.41
2022-11-16T08:19:20.666Z,99564.63
2022-11-16T08:21:47.173Z,99566.59
2022-11-16T08:24:13.643Z,99557.47
2022-11-16T08:26:40.117Z,99568.78
2022-11-16T08:29:06.572Z,99559.44
2022-11-16T08:31:33.245Z,99569.31
2022-11-16T08:34:00.523Z,99572.31
2022-11-16T08:36:26.986Z,99576.53
2022-11-16T08:38:53.872Z,99566.47
2022-11-16T08:41:21.524Z,99571.16
2022-11-16T08:43:50.472Z,99572.06
2022-11-16T08:46:17.673Z,99566.72
2022-11-16T08:48:44.461Z,99580.16
2022-11-16T08:51:17.990Z,99581.59
2022-11-16T08:53:48.022Z,99583.84
2022-11-16T08:56:16.471Z,99573.75
2022-11-16T08:58:57.848Z,99589.34
2022-11-16T09:01:27.336Z,99585.34
2022-11-16T09:03:54.304Z,99579.34
2022-11-16T09:06:22.248Z,99582.41
2022-11-16T09:08:48.787Z,99579.47
2022-11-16T09:11:18.085Z,99589.28
2022-11-16T09:13:46.555Z,99589.91
2022-11-16T09:16:16.661Z,99588.97
2022-11-16T09:18:47.591Z,99584.91
2022-11-16T09:21:19.031Z,99585.09
2022-11-16T09:23:46.306Z,99590.59
2022-11-16T09:26:13.723Z,99587.38
2022-11-16T09:28:41.172Z,99587.44
2022-11-16T09:31:09.115Z,99580.66
2022-11-16T09:33:36.928Z,99579.53
2022-11-16T09:36:08.837Z,99568.97
2022-11-16T09:39:13.900Z,99571.13
2022-11-16T09:41:45.769Z,99583.22
2022-11-16T09:44:33.412Z,99580.66
2022-11-16T09:47:01.581Z,99581.22
2022-11-16T09:49:42.455Z,99572.50
2022-11-16T09:52:20.503Z,99564.03
2022-11-16T09:54:48.716Z,99573.06
2022-11-16T09:57:22.108Z,99576.66
2022-11-16T09:59:53.581Z,99583.28
2022-11-16T10:02:25.414Z,99587.28
2022-11-16T10:04:58.630Z,99579.25
2022-11-16T10:07:33.235Z,99584.09
2022-11-16T10:09:59.663Z,99580.84
2022-11-16T10:12:51.795Z,99582.72
2022-11-16T10:15:21.060Z,99574.28
2022-11-16T10:17:59.923Z,99573.75
2022-11-16T10:21:03.477Z,99577.34
2022-11-16T10:23:44.988Z,99577.53
2022-11-16T10:26:28.790Z,99575.38
2022-11-16T10:29:24.286Z,99576.72
2022-11-16T10:32:31.847Z,99564.19
2022-11-16T10:35:04.252Z,99571.44
2022-11-16T10:37:33.179Z,99559.28
2022-11-16T10:39:59.675Z,99557.34
2022-11-16T10:42:30.923Z,99556.38
2022-11-16T10:45:08.526Z,99558.63
2022-11-16T10:47:56.729Z,99549.22
2022-11-16T10:50:41.986Z,99548.59
2022-11-16T10:53:25.410Z,99541.25
2022-11-16T10:56:15.418Z,99542.00
2022-11-16T10:58:52.166Z,99532.59
2022-11-16T11:01:47.965Z,99530.41
2022-11-16T11:04:14.364Z,99536.28
2022-11-16T11:06:41.246Z,99528.00
2022-11-16T11:09:20.479Z,99530.69
2022-11-16T11:12:31.210Z,99518.28
2022-11-16T11:15:26.407Z,99526.16
2022-11-16T11:18:17.527Z,99528.72
2022-11-16T11:20:47.836Z,99527.50
2022-11-16T11:23:18.507Z,99526.53
2022-11-16T11:25:49.704Z,99527.94
2022-11-16T11:28:44.998Z,99529.13
2022-11-16T11:31:52.337Z,99528.53
2022-11-16T11:34:28.061Z,99528.63
2022-11-16T11:37:11.220Z,99525.91
2022-11-16T11:39:37.820Z,99528.16
2022-11-16T11:42:22.498Z,99512.34
2022-11-16T11:45:03.399Z,99516.16
2022-11-16T11:48:04.244Z,99514.16
2022-11-16T11:50:54.253Z,99513.53
2022-11-16T11:53:37.542Z,99511.31
2022-11-16T11:56:04.789Z,99516.91
2022-11-16T11:58:34.213Z,99521.13
2022-11-16T12:01:32.816Z,99523.34
2022-11-16T12:04:08.028Z,99515.41
2022-11-16T12:06:44.365Z,99513.06
2022-11-16T12:09:20.698Z,99523.38
2022-11-16T12:12:21.087Z,99519.97
2022-11-16T12:15:20.860Z,99515.59
2022-11-16T12:17:52.983Z,99521.84
2022-11-16T12:20:25.745Z,99517.84
2022-11-16T12:22:52.122Z,99511.69
2022-11-16T12:25:56.925Z,99513.97
2022-11-16T12:28:57.756Z,99506.75
2022-11-16T12:31:39.291Z,99503.50
2022-11-16T12:34:37.100Z,99512.75
2022-11-16T12:37:28.120Z,99512.13
2022-11-16T12:40:10.267Z,99516.47
2022-11-16T12:42:58.561Z,99513.84
2022-11-16T12:45:32.633Z,99528.66
2022-11-16T12:48:08.689Z,99522.41
2022-11-16T12:50:50.298Z,99524.84
2022-11-16T12:53:58.213Z,99519.13
2022-11-16T12:57:07.360Z,99527.03
2022-11-16T12:59:39.743Z,99525.91
2022-11-16T13:02:27.924Z,99524.84
2022-11-16T13:05:01.776Z,99513.41
2022-11-16T13:07:44.581Z,99518.47
2022-11-16T13:10:22.539Z,99519.16
2022-11-16T13:13:04.017Z,99513.00
2022-11-16T13:15:42.000Z,99521.00
2022-11-16T13:18:15.342Z,99515.41
2022-11-16T13:21:14.915Z,99511.50
2022-11-16T13:24:09.412Z,99515.66
2022-11-16T13:26:54.096Z,99514.63
2022-11-16T13:29:36.130Z,99510.16
2022-11-16T13:32:13.177Z,99510.88
2022-11-16T13:34:40.861Z,99513.19
2022-11-16T13:37:52.331Z,99512.88
2022-11-16T13:40:23.119Z,99514.91
2022-11-16T13:43:00.910Z,99508.81
2022-11-16T13:45:34.792Z,99505.25
2022-11-16T13:50:51.138Z,99500.72
2022-11-16T13:56:48.877Z,99504.75
2022-11-16T13:59:16.531Z,99494.56
2022-11-16T14:02:04.306Z,99497.75
2022-11-16T14:04:41.763Z,99494.06
2022-11-16T14:07:32.766Z,99489.31
2022-11-16T14:09:59.647Z,99494.34
2022-11-16T14:12:38.283Z,99500.88
2022-11-16T14:15:18.265Z,99495.03
2022-11-16T14:17:50.979Z,99491.63
2022-11-16T14:20:43.669Z,99497.75
2022-11-16T14:23:24.882Z,99492.69
2022-11-16T14:26:06.543Z,99500.09
2022-11-16T14:28:41.891Z,99499.47
2022-11-16T14:31:25.650Z,99492.91
2022-11-16T14:33:57.871Z,99497.66
2022-11-16T14:36:41.587Z,99495.75
2022-11-16T14:39:41.446Z,99498.50
2022-11-16T14:42:18.088Z,99494.47
2022-11-16T14:44:49.514Z,99498.28
2022-11-16T14:47:28.053Z,99500.28
2022-11-16T14:49:55.653Z,99501.38
2022-11-16T14:52:49.920Z,99503.16
2022-11-16T14:55:22.349Z,99491.63
2022-11-16T14:57:48.947Z,99490.47
2022-11-16T15:00:18.355Z,99496.16
2022-11-16T15:02:53.631Z,99484.44
2022-11-16T15:05:28.684Z,99489.31
2022-11-16T15:08:05.389Z,99493.53
2022-11-16T15:10:52.325Z,99494.28
2022-11-16T15:13:24.170Z,99493.22
2022-11-16T15:16:08.820Z,99494.78
2022-11-16T15:18:35.344Z,99490.34
2022-11-16T15:21:01.887Z,99494.81
2022-11-16T15:23:30.810Z,99486.75
2022-11-16T15:26:00.049Z,99490.16
2022-11-16T15:28:28.835Z,99482.50
2022-11-16T15:30:59.493Z,99485.78
2022-11-16T15:33:32.679Z,99488.97
2022-11-16T15:35:59.613Z,99487.69
2022-11-16T15:38:49.972Z,99492.91
2022-11-16T15:41:18.083Z,99488.78
2022-11-16T15:44:12.305Z,99487.72
2022-11-16T15:46:38.785Z,99493.00
2022-11-16T15:49:15.927Z,99490.88
2022-11-16T15:51:45.324Z,99486.44
2022-11-16T15:54:25.158Z,99488.25
2022-11-16T15:56:55.351Z,99487.94
2022-11-16T15:59:32.182Z,99500.53
2022-11-16T16:01:58.984Z,99497.44
2022-11-16T16:04:26.766Z,99501.25
2022-11-16T16:06:58.658Z,99505.50
2022-11-16T16:09:29.084Z,99494.38
2022-11-16T16:12:15.418Z,99499.25
2022-11-16T16:14:42.518Z,99497.44
2022-11-16T16:17:11.131Z,99493.97
2022-11-16T16:19:43.031Z,99498.28
2022-11-16T16:22:23.039Z,99501.47
2022-11-16T16:24:49.521Z,99510.00
2022-11-16T16:27:24.712Z,99508.53
2022-11-16T16:29:52.937Z,99501.25
2022-11-16T16:32:26.586Z,99499.47
2022-11-16T16:34:59.117Z,99500.41
2022-11-16T16:37:27.203Z,99500.81
2022-11-16T16:39:53.710Z,99505.41
2022-11-16T16:42:20.161Z,99507.03
2022-11-16T16:44:47.765Z,99511.94
2022-11-16T16:47:15.790Z,99505.78
2022-11-16T16:49:42.287Z,99497.56
2022-11-16T16:52:11.824Z,99512.63
2022-11-16T16:54:38.360Z,99507.16
2022-11-16T16:57:04.854Z,99503.84
2022-11-16T16:59:31.345Z,99501.34
2022-11-16T17:01:58.780Z,99502.84
2022-11-16T17:04:25.614Z,99489.75
2022-11-16T17:06:54.126Z,99483.28
2022-11-16T17:09:20.899Z,99493.75
2022-11-16T17:11:47.706Z,99500.50
2022-11-16T17:14:14.372Z,99507.81
2022-11-16T17:16:41.150Z,99509.38
2022-11-16T17:19:07.808Z,99506.13
2022-11-16T17:21:34.213Z,99516.47
2022-11-16T17:24:00.715Z,99518.97
2022-11-16T17:26:29.351Z,99506.44
2022-11-16T17:28:57.265Z,99512.94
2022-11-16T17:31:25.398Z,99514.25
2022-11-16T17:33:52.586Z,99519.53
2022-11-16T17:36:20.407Z,99512.44
2022-11-16T17:38:46.827Z,99508.97
2022-11-16T17:41:14.307Z,99507.47
2022-11-16T17:43:42.755Z,99505.78
2022-11-16T17:46:10.794Z,99505.59
2022-11-16T17:48:38.517Z,99508.56
2022-11-16T17:51:05.362Z,99497.88
2022-11-16T17:53:34.710Z,99503.25
2022-11-16T17:56:02.251Z,99495.97
2022-11-16T17:58:30.035Z,99497.44
2022-11-16T18:00:57.190Z,99505.44
2022-11-16T18:03:24.174Z,99500.44
2022-11-16T18:05:51.680Z,99497.06
2022-11-16T18:08:18.154Z,99492.59
2022-11-16T18:10:44.605Z,99487.81
2022-11-16T18:13:11.030Z,99489.28
2022-11-16T18:15:42.401Z,99495.44
2022-11-16T18:18:09.134Z,99498.81
2022-11-16T18:20:37.531Z,99497.56
2022-11-16T18:23:04.358Z,99491.84
2022-11-16T18:25:33.789Z,99503.56
2022-11-16T18:28:00.216Z,99498.50
2022-11-16T18:30:26.624Z,99490.56
2022-11-16T18:32:53.051Z,99482.53
2022-11-16T18:35:19.513Z,99489.84
2022-11-16T18:37:45.995Z,99485.41
2022-11-16T18:40:12.987Z,99495.44
2022-11-16T18:42:39.931Z,99487.22
2022-11-16T18:45:07.132Z,99488.66
2022-11-16T18:47:35.305Z,99483.25
2022-11-16T18:50:01.857Z,99477.13
2022-11-16T18:52:28.387Z,99483.50
2022-11-16T18:54:54.847Z,99481.28
2022-11-16T18:57:21.364Z,99482.28
2022-11-16T18:59:47.795Z,99479.16
2022-11-16T19:02:14.201Z,99479.69
2022-11-16T19:04:40.799Z,99479.66
2022-11-16T19:07:07.788Z,99484.13
2022-11-16T19:09:34.274Z,99471.31
2022-11-16T19:12:00.719Z,99484.50
2022-11-16T19:14:27.164Z,99480.47
2022-11-16T19:16:57.120Z,99489.28
2022-11-16T19:19:24.234Z,99484.66
2022-11-16T19:21:51.830Z,99476.09
2022-11-16T19:24:18.265Z,99468.91
2022-11-16T19:26:44.659Z,99474.69
2022-11-16T19:29:11.087Z,99486.34
2022-11-16T19:31:37.543Z,99479.66
2022-11-16T19:34:06.724Z,99469.81
2022-11-16T19:36:35.325Z,99474.81
2022-11-16T19:39:02.900Z,99467.28
2022-11-16T19:41:29.518Z,99468.16
2022-11-16T19:43:59.796Z,99463.94
2022-11-16T19:46:28.312Z,99468.16
2022-11-16T19:48:54.918Z,99468.84
2022-11-16T19:51:29.475Z,99461.91
2022-11-16T19:53:56.320Z,99461.28
2022-11-16T19:56:24.056Z,99466.25
2022-11-16T19:58:51.195Z,99474.28
2022-11-16T20:01:29.208Z,99472.06
2022-11-16T20:04:00.800Z,99463.91
2022-11-16T20:06:29.513Z,99461.63
2022-11-16T20:09:00.466Z,99461.59
2022-11-16T20:11:29.138Z,99464.53
2022-11-16T20:13:57.684Z,99466.28
2022-11-16T20:16:27.317Z,99453.59
2022-11-16T20:18:54.153Z,99455.09
2022-11-16T20:21:33.057Z,99457.13
2022-11-16T20:24:05.806Z,99451.44
2022-11-16T20:26:36.428Z,99455.38
2022-11-16T20:29:03.686Z,99458.59
2022-11-16T20:31:31.708Z,99470.69
2022-11-16T20:34:04.415Z,99475.63
2022-11-16T20:36:32.893Z,99462.72
2022-11-16T20:39:00.458Z,99467.41
2022-11-16T20:41:29.452Z,99465.19
2022-11-16T20:43:58.112Z,99465.91
2022-11-16T20:46:27.267Z,99475.09
2022-11-16T20:48:54.541Z,99481.91
2022-11-16T20:51:21.369Z,99482.88
2022-11-16T20:53:48.984Z,99476.09
2022-11-16T20:56:17.042Z,99488.41
2022-11-16T20:58:43.484Z,99486.25
2022-11-16T21:01:14.203Z,99489.28
2022-11-16T21:03:42.454Z,99493.47
2022-11-16T21:06:08.912Z,99499.97
2022-11-16T21:08:37.424Z,99507.44
2022-11-16T21:11:15.403Z,99500.75
2022-11-16T21:14:01.029Z,99498.16
2022-11-16T21:16:27.428Z,99488.75
2022-11-16T21:18:55.385Z,99492.59
2022-11-16T21:21:22.034Z,99495.78
2022-11-16T21:23:51.769Z,99493.44
2022-11-16T21:26:20.569Z,99477.16
2022-11-16T21:28:47.026Z,99487.88
2022-11-16T21:31:18.786Z,99485.00
2022-11-16T21:33:46.143Z,99483.31
2022-11-16T21:36:20.987Z,99467.69
2022-11-16T21:38:47.849Z,99464.75
2022-11-16T21:41:15.724Z,99468.59
2022-11-16T21:43:42.224Z,99465.72
2022-11-16T21:46:14.000Z,99466.63
2022-11-16T21:48:40.662Z,99458.31
2022-11-16T21:51:18.068Z,99461.13
2022-11-16T21:53:45.089Z,99454.44
2022-11-16T21:56:19.973Z,99459.47
2022-11-16T21:58:46.942Z,99452.91
2022-11-16T22:01:15.829Z,99457.41
2022-11-16T22:03:42.635Z,99467.44
2022-11-16T22:06:32.608Z,99464.09
2022-11-16T22:08:59.246Z,99468.69
2022-11-16T22:11:25.961Z,99466.53
2022-11-16T22:13:52.404Z,99478.25
2022-11-16T22:16:20.878Z,99471.19
2022-11-16T22:18:47.305Z,99473.28
2022-11-16T22:21:13.753Z,99474.94
2022-11-16T22:23:40.831Z,99484.59
2022-11-16T22:26:10.148Z,99472.94
2022-11-16T22:28:37.487Z,99459.56
2022-11-16T22:31:13.080Z,99454.81
2022-11-16T22:33:40.005Z,99443.88
2022-11-16T22:36:10.478Z,99444.75
2022-11-16T22:38:37.231Z,99447.84
2022-11-16T22:41:04.356Z,99440.97
2022-11-16T22:43:31.575Z,99433.09
2022-11-16T22:46:04.482Z,99424.09
2022-11-16T22:48:34.691Z,99434.78
2022-11-16T22:51:07.124Z,99435.97
2022-11-16T22:53:34.460Z,99416.09
2022-11-16T22:56:06.458Z,99425.28
2022-11-16T22:58:33.151Z,99415.13
2022-11-16T23:00:59.677Z,99420.03
2022-11-16T23:03:26.150Z,99411.56
2022-11-16T23:05:52.577Z,99417.28
2022-11-16T23:08:24.647Z,99409.19
2022-11-16T23:11:24.967Z,99411.38
2022-11-16T23:14:11.857Z,99409.28
2022-11-16T23:16:39.338Z,99416.19
2022-11-16T23:19:25.285Z,99424.81
2022-11-16T23:22:10.127Z,99418.47
2022-11-16T23:24:54.818Z,99410.31
2022-11-16T23:27:30.684Z,99402.41
2022-11-16T23:29:58.865Z,99408.41
2022-11-16T23:32:25.514Z,99410.09
2022-11-16T23:34:51.932Z,99407.22
2022-11-16T23:37:18.414Z,99390.59
2022-11-16T23:39:44.896Z,99384.47
2022-11-16T23:42:30.438Z,99373.28
2022-11-16T23:44:57.035Z,99381.22
2022-11-16T23:47:23.844Z,99377.19
2022-11-16T23:49:50.291Z,99381.78
2022-11-16T23:52:16.700Z,99375.72
2022-11-16T23:54:43.188Z,99373.84
2022-11-16T23:57:09.690Z,99371.00
2022-11-16T23:59:36.227Z,99363.94
